Time;durP1;ratioP1;P1;durP2;ratioP2;P2;SDS_P1;SDS_P2;PMS_P1;PMS_P2;Temp;Humidity;BMP_temperature;BMP_pressure;BME280_temperature;BME280_humidity;BME280_pressure;Samples;Min_cycle;Max_cycle;Signal;HPM_P1;HPM_P2
2023/11/10 00:02:08;;;;;;;7.80;3.45;;;7.70;99.90;;;;;;5081862;28;20028;-76
2023/11/10 00:04:36;;;;;;;9.80;3.38;;;7.70;99.90;;;;;;5081736;28;20032;-76
2023/11/10 00:07:03;;;;;;;5.50;3.05;;;7.60;99.90;;;;;;5083477;28;20058;-77
2023/11/10 00:09:28;;;;;;;9.63;2.88;;;7.60;99.90;;;;;;5083277;28;20028;-76
2023/11/10 00:11:56;;;;;;;11.20;3.95;;;7.60;99.90;;;;;;5083166;28;20032;-76
2023/11/10 00:14:21;;;;;;;8.73;3.97;;;7.60;99.90;;;;;;5080928;28;20030;-74
2023/11/10 00:16:47;;;;;;;9.30;4.40;;;7.60;99.90;;;;;;5081702;28;20154;-77
2023/11/10 00:19:13;;;;;;;8.15;4.18;;;7.50;99.90;;;;;;5082380;28;20431;-76
2023/11/10 00:21:40;;;;;;;8.32;3.97;;;7.50;99.90;;;;;;5081611;28;20029;-75
2023/11/10 00:24:05;;;;;;;8.35;3.72;;;7.50;99.90;;;;;;5083272;28;20055;-78
2023/11/10 00:26:39;;;;;;;12.13;3.92;;;7.50;99.90;;;;;;5081403;28;20032;-81
2023/11/10 00:29:05;;;;;;;11.35;3.80;;;7.50;99.90;;;;;;5081787;28;20035;-79
2023/11/10 00:31:30;;;;;;;11.65;4.00;;;7.50;99.90;;;;;;5083008;28;20017;-74
2023/11/10 00:33:57;;;;;;;15.13;4.40;;;7.50;99.90;;;;;;5082504;28;20032;-76
2023/11/10 00:36:23;;;;;;;14.05;4.53;;;7.50;99.90;;;;;;5081799;28;20476;-78
2023/11/10 00:38:49;;;;;;;10.20;4.00;;;7.50;99.90;;;;;;5081349;28;20072;-74
2023/11/10 00:41:15;;;;;;;12.13;4.60;;;7.40;99.90;;;;;;5080856;28;20024;-76
2023/11/10 00:43:40;;;;;;;10.07;3.95;;;7.40;99.90;;;;;;5081252;28;20017;-79
2023/11/10 00:46:06;;;;;;;8.75;4.03;;;7.40;99.90;;;;;;5081288;28;20119;-75
2023/11/10 00:48:33;;;;;;;10.05;3.88;;;7.40;99.90;;;;;;5080914;28;20470;-74
2023/11/10 00:50:59;;;;;;;11.90;4.30;;;7.40;99.90;;;;;;5082949;28;20031;-75
2023/11/10 00:53:26;;;;;;;11.10;4.35;;;7.40;99.90;;;;;;5081928;28;20038;-79
2023/11/10 00:55:53;;;;;;;10.55;4.88;;;7.40;99.90;;;;;;5081028;28;20020;-75
2023/11/10 00:58:19;;;;;;;16.02;5.20;;;7.40;99.90;;;;;;5080516;28;20082;-75
2023/11/10 01:00:45;;;;;;;14.23;5.72;;;7.30;99.90;;;;;;5080731;28;20048;-78
2023/11/10 01:03:11;;;;;;;14.40;5.32;;;7.40;99.90;;;;;;5082041;28;20032;-76
2023/11/10 01:05:36;;;;;;;12.27;5.80;;;7.30;99.90;;;;;;5082387;28;20024;-76
2023/11/10 01:08:02;;;;;;;14.45;6.13;;;7.40;99.90;;;;;;5082223;28;20034;-77
2023/11/10 01:10:28;;;;;;;12.15;5.82;;;7.40;99.90;;;;;;5080862;28;20035;-76
2023/11/10 01:12:53;;;;;;;13.52;6.43;;;7.40;99.90;;;;;;5081227;28;20016;-79
2023/11/10 01:15:20;;;;;;;18.05;6.57;;;7.40;99.90;;;;;;5081852;28;20040;-75
2023/11/10 01:17:47;;;;;;;12.10;5.70;;;7.40;99.90;;;;;;5080000;28;20024;-76
2023/11/10 01:20:13;;;;;;;18.60;6.50;;;7.40;99.90;;;;;;5082090;28;20071;-76
2023/11/10 01:22:40;;;;;;;16.70;6.32;;;7.40;99.90;;;;;;5081412;28;20066;-73
2023/11/10 01:25:07;;;;;;;18.23;8.05;;;7.40;99.90;;;;;;5081847;28;20021;-76
2023/11/10 01:27:33;;;;;;;18.55;8.48;;;7.40;99.90;;;;;;5081901;28;20048;-77
2023/11/10 01:29:59;;;;;;;22.17;8.13;;;7.40;99.90;;;;;;5081625;28;20025;-73
2023/11/10 01:32:28;;;;;;;16.70;7.72;;;7.40;99.90;;;;;;5081179;28;20070;-75
2023/11/10 01:34:54;;;;;;;21.33;9.00;;;7.40;99.90;;;;;;5082087;28;20059;-76
2023/11/10 01:37:20;;;;;;;20.27;8.23;;;7.40;99.90;;;;;;5080090;28;20025;-77
2023/11/10 01:39:46;;;;;;;21.02;9.05;;;7.50;99.90;;;;;;5082068;28;20070;-77
2023/11/10 01:42:12;;;;;;;26.55;9.70;;;7.50;99.90;;;;;;5079921;28;20029;-76
2023/11/10 01:44:38;;;;;;;24.85;10.38;;;7.40;99.90;;;;;;5080316;28;20035;-74
2023/11/10 01:47:05;;;;;;;25.00;10.77;;;7.40;99.90;;;;;;5081628;28;20032;-78
2023/11/10 01:49:32;;;;;;;27.45;11.00;;;7.50;99.90;;;;;;5081639;28;20040;-77
2023/11/10 01:51:59;;;;;;;26.92;11.32;;;7.50;99.90;;;;;;5081686;28;20032;-78
2023/11/10 01:54:29;;;;;;;31.33;12.20;;;7.40;99.90;;;;;;5082206;28;20035;-78
2023/11/10 01:56:56;;;;;;;25.60;9.07;;;7.50;99.90;;;;;;5080882;28;20027;-73
2023/11/10 01:59:22;;;;;;;28.08;12.73;;;7.50;99.90;;;;;;5081633;28;20040;-77
2023/11/10 02:01:48;;;;;;;29.40;12.27;;;7.40;99.90;;;;;;5080162;28;20390;-76
2023/11/10 02:04:17;;;;;;;29.73;13.60;;;7.50;99.90;;;;;;5079032;28;20029;-75
2023/11/10 02:06:44;;;;;;;28.83;13.35;;;7.50;99.90;;;;;;5080723;28;20552;-77
2023/11/10 02:09:10;;;;;;;31.67;13.80;;;7.50;99.90;;;;;;5079357;28;20027;-80
2023/11/10 02:11:39;;;;;;;33.30;14.55;;;7.50;99.90;;;;;;5080832;28;20024;-77
2023/11/10 02:14:08;;;;;;;30.67;14.05;;;7.50;99.90;;;;;;5081320;28;20028;-73
2023/11/10 02:16:34;;;;;;;31.70;14.38;;;7.50;99.90;;;;;;5080970;28;20030;-77
2023/11/10 02:19:00;;;;;;;30.23;14.40;;;7.40;99.90;;;;;;5081211;28;20100;-74
2023/11/10 02:21:26;;;;;;;32.17;15.63;;;7.50;99.90;;;;;;5081355;28;20024;-76
2023/11/10 02:23:54;;;;;;;30.83;13.63;;;7.50;99.90;;;;;;5079607;28;20024;-73
2023/11/10 02:26:20;;;;;;;36.53;15.80;;;7.60;99.90;;;;;;5080770;28;20092;-75
2023/11/10 02:28:45;;;;;;;36.40;16.75;;;7.50;99.90;;;;;;5081153;28;20016;-74
2023/11/10 02:31:12;;;;;;;34.95;16.65;;;7.50;99.90;;;;;;5079445;28;20377;-77
2023/11/10 02:33:38;;;;;;;34.40;14.90;;;7.60;99.90;;;;;;5080576;28;20572;-75
2023/11/10 02:36:06;;;;;;;35.40;15.98;;;7.50;99.90;;;;;;5081015;28;20055;-74
2023/11/10 02:38:32;;;;;;;36.00;17.35;;;7.50;99.90;;;;;;5080091;28;20021;-76
2023/11/10 02:40:57;;;;;;;34.30;15.48;;;7.50;99.90;;;;;;5081213;28;20044;-75
2023/11/10 02:43:23;;;;;;;32.72;15.63;;;7.50;99.90;;;;;;5080839;28;20021;-79
2023/11/10 02:45:48;;;;;;;32.17;14.63;;;7.50;99.90;;;;;;5079319;28;20048;-75
2023/11/10 02:48:14;;;;;;;31.73;16.52;;;7.50;99.90;;;;;;5081010;28;20024;-76
2023/11/10 02:50:41;;;;;;;30.50;13.43;;;7.50;99.90;;;;;;5080597;28;20043;-76
2023/11/10 02:53:09;;;;;;;32.72;15.48;;;7.50;99.90;;;;;;5080911;28;20020;-74
2023/11/10 02:55:34;;;;;;;29.40;12.65;;;7.50;99.90;;;;;;5080315;28;20024;-76
2023/11/10 02:58:00;;;;;;;30.15;14.93;;;7.50;99.90;;;;;;5080610;28;20058;-75
2023/11/10 03:00:25;;;;;;;30.10;14.70;;;7.50;99.90;;;;;;5079251;28;20040;-75
2023/11/10 03:02:51;;;;;;;28.23;13.55;;;7.50;99.90;;;;;;5080937;28;20027;-73
2023/11/10 03:05:17;;;;;;;28.20;13.00;;;7.50;99.90;;;;;;5079079;28;20028;-72
2023/11/10 03:07:43;;;;;;;30.48;13.38;;;7.50;99.90;;;;;;5078374;28;20063;-74
2023/11/10 03:10:09;;;;;;;26.38;13.55;;;7.50;99.90;;;;;;5079696;28;20441;-74
2023/11/10 03:12:35;;;;;;;28.42;13.25;;;7.50;99.90;;;;;;5080163;28;20024;-74
2023/11/10 03:15:01;;;;;;;25.75;13.90;;;7.50;99.90;;;;;;5078556;28;20025;-73
2023/11/10 03:17:29;;;;;;;22.73;12.77;;;7.50;99.90;;;;;;5079024;28;20084;-74
2023/11/10 03:19:56;;;;;;;27.88;13.77;;;7.50;99.90;;;;;;5077807;28;20111;-75
2023/11/10 03:22:22;;;;;;;30.80;13.20;;;7.40;99.90;;;;;;5078342;28;20025;-76
2023/11/10 03:24:49;;;;;;;27.33;13.95;;;7.60;99.90;;;;;;5077580;28;20023;-73
2023/11/10 03:27:15;;;;;;;25.40;11.35;;;7.50;99.90;;;;;;5078766;28;20017;-75
2023/11/10 03:29:41;;;;;;;24.08;12.93;;;7.50;99.90;;;;;;5079386;28;20031;-74
2023/11/10 03:32:08;;;;;;;24.67;12.07;;;7.40;99.90;;;;;;5078467;28;20068;-74
2023/11/10 03:34:38;;;;;;;23.88;12.60;;;7.50;99.90;;;;;;5079345;28;20025;-76
2023/11/10 03:37:04;;;;;;;25.33;12.43;;;7.50;99.90;;;;;;5079691;28;20035;-73
2023/11/10 03:39:29;;;;;;;23.08;11.82;;;7.50;99.90;;;;;;5079207;28;20092;-74
2023/11/10 03:42:00;;;;;;;28.10;12.23;;;7.50;99.90;;;;;;5078687;28;20033;-75
2023/11/10 03:44:28;;;;;;;29.33;11.70;;;7.50;99.90;;;;;;5078991;28;20017;-75
2023/11/10 03:46:55;;;;;;;24.00;10.85;;;7.50;99.90;;;;;;5079007;28;20039;-73
2023/11/10 03:49:25;;;;;;;22.55;11.15;;;7.60;99.90;;;;;;5079081;28;20025;-75
2023/11/10 03:51:50;;;;;;;23.55;10.55;;;7.50;99.90;;;;;;5077853;28;20031;-75
2023/11/10 03:54:17;;;;;;;28.23;11.88;;;7.60;99.90;;;;;;5079034;28;20060;-75
2023/11/10 03:56:43;;;;;;;19.50;11.07;;;7.50;99.90;;;;;;5077316;28;20032;-74
2023/11/10 03:59:09;;;;;;;24.92;11.68;;;7.50;99.90;;;;;;5078651;28;20135;-74
2023/11/10 04:01:36;;;;;;;20.45;10.30;;;7.50;99.90;;;;;;5078532;28;20118;-72
2023/11/10 04:04:03;;;;;;;23.02;11.30;;;7.50;99.90;;;;;;5079061;28;20392;-77
2023/11/10 04:06:29;;;;;;;24.38;11.65;;;7.50;99.90;;;;;;5078780;28;20480;-74
2023/11/10 04:08:54;;;;;;;21.58;10.90;;;7.50;99.90;;;;;;5079408;28;20025;-74
2023/11/10 04:11:20;;;;;;;20.92;11.20;;;7.50;99.90;;;;;;5078508;28;20021;-75
2023/11/10 04:13:46;;;;;;;27.50;11.73;;;7.60;99.90;;;;;;5079201;28;20159;-78
2023/11/10 04:16:16;;;;;;;28.38;11.43;;;7.50;99.90;;;;;;5078448;28;20080;-74
2023/11/10 04:18:42;;;;;;;28.48;11.80;;;7.50;99.90;;;;;;5076948;28;20056;-73
2023/11/10 04:21:08;;;;;;;22.77;11.77;;;7.60;99.90;;;;;;5078840;28;20025;-77
2023/11/10 04:23:33;;;;;;;22.58;11.95;;;7.50;99.90;;;;;;5077806;28;20033;-74
2023/11/10 04:26:05;;;;;;;23.38;12.60;;;7.50;99.90;;;;;;5077804;28;20051;-76
2023/11/10 04:28:30;;;;;;;26.95;13.77;;;7.50;99.90;;;;;;5079123;28;20084;-75
2023/11/10 04:30:56;;;;;;;32.25;13.32;;;7.60;99.90;;;;;;5079382;28;20059;-73
2023/11/10 04:33:22;;;;;;;30.83;14.02;;;7.50;99.90;;;;;;5077812;28;20024;-75
2023/11/10 04:35:47;;;;;;;28.88;14.75;;;7.50;99.90;;;;;;5078527;28;20484;-72
2023/11/10 04:38:13;;;;;;;34.30;16.20;;;7.40;99.90;;;;;;5081021;28;20032;-74
2023/11/10 04:40:40;;;;;;;32.72;15.57;;;7.50;99.90;;;;;;5081857;28;20040;-77
2023/11/10 04:43:06;;;;;;;33.88;16.27;;;7.50;99.90;;;;;;5082227;28;20020;-75
2023/11/10 04:45:32;;;;;;;31.02;15.30;;;7.50;99.90;;;;;;5080743;28;20029;-74
2023/11/10 04:47:57;;;;;;;33.90;16.77;;;7.50;99.90;;;;;;5081702;28;20012;-74
2023/11/10 04:50:23;;;;;;;34.08;16.55;;;7.50;99.90;;;;;;5080472;28;20024;-77
2023/11/10 04:52:51;;;;;;;33.63;15.52;;;7.40;99.90;;;;;;5081494;28;20075;-74
2023/11/10 04:55:16;;;;;;;30.35;14.98;;;7.60;99.90;;;;;;5081885;28;20468;-75
2023/11/10 04:57:42;;;;;;;32.28;15.25;;;7.40;99.90;;;;;;5081728;28;20048;-74
2023/11/10 05:00:09;;;;;;;36.83;16.95;;;7.50;99.90;;;;;;5082243;28;20032;-75
2023/11/10 05:02:34;;;;;;;35.42;15.55;;;7.50;99.90;;;;;;5081900;28;20046;-74
2023/11/10 05:05:00;;;;;;;31.30;14.68;;;7.50;99.90;;;;;;5079053;28;20104;-76
2023/11/10 05:07:26;;;;;;;37.42;17.10;;;7.50;99.90;;;;;;5081470;28;20108;-75
2023/11/10 05:09:53;;;;;;;33.70;15.98;;;7.50;99.90;;;;;;5081621;28;20523;-74
2023/11/10 05:12:18;;;;;;;27.95;14.65;;;7.50;99.90;;;;;;5081601;28;20017;-72
2023/11/10 05:14:44;;;;;;;27.05;13.85;;;7.50;99.90;;;;;;5082003;28;20044;-74
2023/11/10 05:17:10;;;;;;;26.48;12.65;;;7.50;99.90;;;;;;5079679;28;20012;-74
2023/11/10 05:19:36;;;;;;;25.58;13.07;;;7.40;99.90;;;;;;5081625;28;20051;-73
2023/11/10 05:22:01;;;;;;;23.70;12.57;;;7.50;99.90;;;;;;5081928;28;20439;-75
2023/11/10 05:24:27;;;;;;;31.77;14.27;;;7.50;99.90;;;;;;5080120;28;20039;-74
2023/11/10 05:26:53;;;;;;;25.08;11.88;;;7.40;99.90;;;;;;5081129;28;20068;-74
2023/11/10 05:29:20;;;;;;;28.50;12.75;;;7.50;99.90;;;;;;5081673;28;20024;-74
2023/11/10 05:31:45;;;;;;;28.85;11.45;;;7.50;99.90;;;;;;5079986;28;20046;-74
2023/11/10 05:34:12;;;;;;;26.75;12.55;;;7.50;99.90;;;;;;5080957;28;20048;-74
2023/11/10 05:36:38;;;;;;;29.70;14.30;;;7.50;99.90;;;;;;5081096;28;20062;-77
2023/11/10 05:39:04;;;;;;;25.88;11.98;;;7.50;99.90;;;;;;5080982;28;20024;-76
2023/11/10 05:41:32;;;;;;;26.60;12.27;;;7.50;99.90;;;;;;5079260;28;20084;-75
2023/11/10 05:43:59;;;;;;;25.55;11.43;;;7.50;99.90;;;;;;5081486;28;20424;-75
2023/11/10 05:46:25;;;;;;;25.88;11.93;;;7.50;99.90;;;;;;5079487;28;20016;-75
2023/11/10 05:48:50;;;;;;;20.70;10.57;;;7.40;99.90;;;;;;5081120;28;20112;-75
2023/11/10 05:51:16;;;;;;;28.25;11.30;;;7.50;99.90;;;;;;5080616;28;20404;-74
2023/11/10 05:53:41;;;;;;;22.77;11.20;;;7.60;99.90;;;;;;5079078;28;20044;-75
2023/11/10 05:56:09;;;;;;;26.20;11.45;;;7.40;99.90;;;;;;5081407;28;20028;-75
2023/11/10 05:58:34;;;;;;;23.15;11.30;;;7.40;99.90;;;;;;5080825;28;20043;-76
2023/11/10 06:01:00;;;;;;;23.60;8.52;;;7.40;99.90;;;;;;5080717;28;20455;-74
2023/11/10 06:03:27;;;;;;;21.00;10.00;;;7.40;99.90;;;;;;5080749;28;20384;-73
2023/11/10 06:05:55;;;;;;;25.52;10.18;;;7.30;99.90;;;;;;5079579;28;20036;-76
2023/11/10 06:08:22;;;;;;;23.45;10.30;;;7.40;99.90;;;;;;5078472;28;20502;-72
2023/11/10 06:10:52;;;;;;;19.85;8.80;;;7.40;99.90;;;;;;5080398;28;20040;-73
2023/11/10 06:13:21;;;;;;;19.95;9.48;;;7.40;99.90;;;;;;5080723;28;20047;-75
2023/11/10 06:15:47;;;;;;;26.58;9.43;;;7.50;99.90;;;;;;5080039;28;20567;-72
2023/11/10 06:18:12;;;;;;;20.33;9.27;;;7.40;99.90;;;;;;5078693;28;20464;-77
2023/11/10 06:20:38;;;;;;;26.70;9.80;;;7.40;99.90;;;;;;5080545;28;20037;-75
2023/11/10 06:23:04;;;;;;;22.58;9.50;;;7.30;99.90;;;;;;5077627;28;20039;-77
2023/11/10 06:25:30;;;;;;;23.45;10.27;;;7.40;99.90;;;;;;5080808;28;20092;-78
2023/11/10 06:27:56;;;;;;;22.73;10.68;;;7.40;99.90;;;;;;5081509;28;20035;-76
2023/11/10 06:30:24;;;;;;;19.42;9.50;;;7.40;99.90;;;;;;5079960;28;20033;-77
2023/11/10 06:32:50;;;;;;;28.35;10.23;;;7.40;99.90;;;;;;5080044;28;20047;-75
2023/11/10 06:35:15;;;;;;;26.33;9.93;;;7.30;99.90;;;;;;5080534;28;20020;-73
2023/11/10 06:37:41;;;;;;;25.67;9.85;;;7.40;99.90;;;;;;5079671;28;20070;-75
2023/11/10 06:40:07;;;;;;;20.55;9.77;;;7.40;99.90;;;;;;5081046;28;20469;-76
2023/11/10 06:42:33;;;;;;;21.02;10.02;;;7.40;99.90;;;;;;5080955;28;20070;-76
2023/11/10 06:45:03;;;;;;;19.38;9.30;;;7.40;99.90;;;;;;5081373;28;20124;-76
2023/11/10 06:47:29;;;;;;;22.55;9.93;;;7.40;99.90;;;;;;5080666;28;20032;-77
2023/11/10 06:49:55;;;;;;;24.75;9.80;;;7.40;99.90;;;;;;5080664;28;20021;-77
2023/11/10 06:52:22;;;;;;;16.88;9.07;;;7.40;99.90;;;;;;5081181;28;20048;-76
2023/11/10 06:54:48;;;;;;;22.15;9.27;;;7.40;99.90;;;;;;5080632;28;20025;-77
2023/11/10 06:57:15;;;;;;;20.85;9.18;;;7.40;99.90;;;;;;5079496;28;20045;-76
2023/11/10 06:59:42;;;;;;;24.63;9.35;;;7.40;99.90;;;;;;5080394;28;20025;-74
2023/11/10 07:02:12;;;;;;;19.75;9.32;;;7.40;99.90;;;;;;5079254;28;20127;-75
2023/11/10 07:04:38;;;;;;;20.92;10.05;;;7.40;99.90;;;;;;5080209;28;20050;-75
2023/11/10 07:07:05;;;;;;;19.23;9.75;;;7.40;99.90;;;;;;5080945;28;20034;-75
2023/11/10 07:09:31;;;;;;;22.55;9.25;;;7.40;99.90;;;;;;5080155;28;20068;-76
2023/11/10 07:11:57;;;;;;;23.83;9.98;;;7.40;99.90;;;;;;5079272;28;20028;-75
2023/11/10 07:14:23;;;;;;;20.88;8.27;;;7.40;99.90;;;;;;5079509;28;20162;-75
2023/11/10 07:16:49;;;;;;;20.52;9.25;;;7.40;99.90;;;;;;5080409;28;20437;-74
2023/11/10 07:19:15;;;;;;;21.42;9.40;;;7.50;99.90;;;;;;5078994;28;20051;-75
2023/11/10 07:21:40;;;;;;;17.05;9.32;;;7.50;99.90;;;;;;5080789;28;20100;-76
2023/11/10 07:24:07;;;;;;;24.83;9.70;;;7.40;99.90;;;;;;5080254;28;20025;-76
2023/11/10 07:26:32;;;;;;;20.88;9.23;;;7.40;99.90;;;;;;5080002;28;20548;-74
2023/11/10 07:29:02;;;;;;;20.65;9.75;;;7.40;99.90;;;;;;5079463;28;20027;-77
2023/11/10 07:31:28;;;;;;;18.70;9.20;;;7.40;99.90;;;;;;5080204;28;20048;-75
2023/11/10 07:33:55;;;;;;;21.23;9.75;;;7.50;99.90;;;;;;5079072;28;20431;-76
2023/11/10 07:36:21;;;;;;;21.23;10.30;;;7.40;99.90;;;;;;5080509;28;20027;-75
2023/11/10 07:38:47;;;;;;;21.63;9.82;;;7.40;99.90;;;;;;5080165;28;20029;-73
2023/11/10 07:41:12;;;;;;;19.70;9.25;;;7.40;99.90;;;;;;5080252;28;20496;-75
2023/11/10 07:43:38;;;;;;;22.50;10.68;;;7.40;99.90;;;;;;5080350;28;20071;-74
2023/11/10 07:46:04;;;;;;;19.75;9.95;;;7.50;99.90;;;;;;5080133;28;20104;-75
2023/11/10 07:48:31;;;;;;;32.78;12.48;;;7.40;99.90;;;;;;5080106;28;20023;-78
2023/11/10 07:50:58;;;;;;;22.85;10.02;;;7.40;99.90;;;;;;5080434;28;20021;-77
2023/11/10 07:53:26;;;;;;;24.25;9.90;;;7.50;99.90;;;;;;5079539;28;20077;-72
2023/11/10 07:55:52;;;;;;;22.65;10.77;;;7.50;99.90;;;;;;5080503;28;20024;-75
2023/11/10 07:58:18;;;;;;;26.15;10.02;;;7.40;99.90;;;;;;5079882;28;20045;-75
2023/11/10 08:00:45;;;;;;;24.23;9.35;;;7.50;99.90;;;;;;5079913;28;20124;-75
2023/11/10 08:03:11;;;;;;;26.48;10.45;;;7.50;99.90;;;;;;5077955;28;20025;-75
2023/11/10 08:05:37;;;;;;;20.30;9.73;;;7.50;99.90;;;;;;5080096;28;20019;-77
2023/11/10 08:08:05;;;;;;;21.27;9.38;;;7.50;99.90;;;;;;5079981;28;20074;-77
2023/11/10 08:10:31;;;;;;;20.75;11.23;;;7.50;99.90;;;;;;5083775;28;20147;-75
2023/11/10 08:13:04;;;;;;;25.90;9.65;;;7.50;99.90;;;;;;5083001;28;20471;-75
2023/11/10 08:15:30;;;;;;;24.80;10.18;;;7.50;99.90;;;;;;5084165;28;20032;-76
2023/11/10 08:17:56;;;;;;;19.92;10.00;;;7.50;99.90;;;;;;5084021;28;20032;-76
2023/11/10 08:20:22;;;;;;;20.73;9.63;;;7.50;99.90;;;;;;5083140;28;20037;-76
2023/11/10 08:22:48;;;;;;;23.90;10.52;;;7.50;99.90;;;;;;5083284;28;20123;-75
2023/11/10 08:25:14;;;;;;;21.42;10.40;;;7.40;99.90;;;;;;5083499;28;20091;-75
2023/11/10 08:27:39;;;;;;;25.92;11.13;;;7.50;99.90;;;;;;5083249;28;20028;-76
2023/11/10 08:30:10;;;;;;;20.38;9.75;;;7.50;99.90;;;;;;5083264;28;20020;-76
2023/11/10 08:32:36;;;;;;;30.17;10.35;;;7.50;99.90;;;;;;5080278;28;20024;-79
2023/11/10 08:35:02;;;;;;;21.55;10.32;;;7.40;99.90;;;;;;5081338;28;20041;-75
2023/11/10 08:37:28;;;;;;;28.30;11.52;;;7.50;99.90;;;;;;5080935;28;20029;-75
2023/11/10 08:39:53;;;;;;;24.15;11.60;;;7.50;99.90;;;;;;5080359;28;20135;-76
2023/11/10 08:42:19;;;;;;;30.17;11.52;;;7.60;99.90;;;;;;5079101;28;20043;-75
2023/11/10 08:44:46;;;;;;;23.75;11.35;;;7.60;99.90;;;;;;5082903;28;20029;-75
2023/11/10 08:47:12;;;;;;;20.50;10.70;;;7.50;99.90;;;;;;5081390;28;20116;-75
2023/11/10 08:49:38;;;;;;;31.60;12.43;;;7.70;99.90;;;;;;5082941;28;20397;-75
2023/11/10 08:52:04;;;;;;;22.63;11.40;;;7.60;99.90;;;;;;5083465;28;20031;-76
2023/11/10 08:54:33;;;;;;;23.80;10.63;;;7.70;99.90;;;;;;5083317;28;20127;-73
2023/11/10 08:56:59;;;;;;;30.52;13.63;;;7.70;99.90;;;;;;5079549;28;20025;-77
2023/11/10 08:59:25;;;;;;;26.08;12.18;;;7.80;99.90;;;;;;5080877;28;20075;-77
2023/11/10 09:01:52;;;;;;;26.88;13.10;;;7.80;99.90;;;;;;5082832;28;20020;-77
2023/11/10 09:04:17;;;;;;;27.88;12.25;;;7.90;99.90;;;;;;5082307;28;20095;-77
2023/11/10 09:06:43;;;;;;;25.58;12.43;;;7.90;99.90;;;;;;5083051;28;20171;-78
2023/11/10 09:09:09;;;;;;;31.80;12.55;;;8.00;99.90;;;;;;5082601;28;20076;-78
2023/11/10 09:11:35;;;;;;;29.23;14.52;;;8.00;99.90;;;;;;5081277;28;20078;-78
2023/11/10 09:14:01;;;;;;;27.23;12.32;;;8.00;99.90;;;;;;5081295;28;20027;-75
2023/11/10 09:16:31;;;;;;;23.95;12.43;;;8.10;99.90;;;;;;5082068;28;20124;-77
2023/11/10 09:18:57;;;;;;;25.23;12.05;;;8.00;99.90;;;;;;5076031;28;20483;-77
2023/11/10 09:21:23;;;;;;;28.65;13.55;;;8.00;99.90;;;;;;5072729;28;20155;-74
2023/11/10 09:23:48;;;;;;;25.98;12.07;;;8.10;99.90;;;;;;5073180;28;20109;-75
2023/11/10 09:26:14;;;;;;;25.85;12.98;;;8.10;99.90;;;;;;5079172;28;20024;-75
2023/11/10 09:28:40;;;;;;;25.40;12.45;;;8.10;99.90;;;;;;5080382;28;20025;-77
2023/11/10 09:31:06;;;;;;;21.33;11.10;;;8.10;99.90;;;;;;5080460;28;20080;-76
2023/11/10 09:33:31;;;;;;;19.90;10.65;;;8.20;99.90;;;;;;5082562;28;20032;-75
2023/11/10 09:35:59;;;;;;;22.55;11.07;;;8.20;99.90;;;;;;5081572;28;20056;-74
2023/11/10 09:38:24;;;;;;;24.63;10.52;;;8.20;99.90;;;;;;5081125;28;20029;-77
2023/11/10 09:40:51;;;;;;;25.58;10.50;;;8.20;99.90;;;;;;5076389;28;20568;-76
2023/11/10 09:43:17;;;;;;;24.02;9.65;;;8.10;99.90;;;;;;5082078;28;20020;-74
2023/11/10 09:45:52;;;;;;;21.48;9.88;;;8.20;99.90;;;;;;5081661;28;20025;-77
2023/11/10 09:48:19;;;;;;;18.35;9.32;;;8.30;99.90;;;;;;5082300;28;20032;-75
2023/11/10 09:50:47;;;;;;;13.95;8.65;;;8.30;99.90;;;;;;5081810;28;20107;-75
2023/11/10 09:53:14;;;;;;;18.80;8.25;;;8.30;99.90;;;;;;5081564;28;20035;-76
2023/11/10 09:55:40;;;;;;;17.48;9.30;;;8.30;99.90;;;;;;5080853;28;20052;-78
2023/11/10 09:58:09;;;;;;;17.13;8.85;;;8.40;99.90;;;;;;5081718;28;20044;-77
2023/11/10 10:00:36;;;;;;;17.85;8.32;;;8.30;99.90;;;;;;5080057;28;20041;-75
2023/11/10 10:03:04;;;;;;;16.85;8.70;;;8.30;99.90;;;;;;5080706;28;20021;-76
2023/11/10 10:05:30;;;;;;;18.13;8.68;;;8.40;99.90;;;;;;5081547;28;20025;-75
2023/11/10 10:07:56;;;;;;;16.38;8.02;;;8.40;99.90;;;;;;5078496;28;20084;-73
2023/11/10 10:10:24;;;;;;;17.50;8.18;;;8.40;99.90;;;;;;5080645;28;20032;-75
2023/11/10 10:12:51;;;;;;;19.17;7.80;;;8.40;99.90;;;;;;5080505;28;20111;-75
2023/11/10 10:15:31;;;;;;;23.10;7.55;;;8.50;99.90;;;;;;5080418;28;20126;-74
2023/11/10 10:18:08;;;;;;;15.98;6.60;;;8.50;99.90;;;;;;5080767;28;20020;-75
2023/11/10 10:20:34;;;;;;;15.93;7.20;;;8.60;99.90;;;;;;5078740;28;20437;-77
2023/11/10 10:23:00;;;;;;;21.55;7.00;;;8.70;99.90;;;;;;5081130;28;20997;-76
2023/11/10 10:25:26;;;;;;;15.48;6.18;;;8.80;99.90;;;;;;5080520;28;20083;-75
2023/11/10 10:27:51;;;;;;;12.75;6.68;;;8.90;99.90;;;;;;5079434;28;20020;-74
2023/11/10 10:30:18;;;;;;;17.50;6.10;;;8.90;99.90;;;;;;5079015;28;20020;-74
2023/11/10 10:32:44;;;;;;;12.48;5.30;;;9.00;99.90;;;;;;5080380;28;20058;-76
2023/11/10 10:35:12;;;;;;;15.13;5.25;;;9.00;99.90;;;;;;5080155;28;20025;-73
2023/11/10 10:37:40;;;;;;;13.38;5.90;;;9.00;99.90;;;;;;5078662;28;20023;-78
2023/11/10 10:40:09;;;;;;;12.90;5.57;;;8.90;99.90;;;;;;5080058;28;20056;-81
2023/11/10 10:42:36;;;;;;;15.85;5.53;;;8.90;99.90;;;;;;5078930;28;20029;-77
2023/11/10 10:45:07;;;;;;;13.23;5.82;;;9.00;99.90;;;;;;5079556;28;20064;-78
2023/11/10 10:47:38;;;;;;;11.73;5.75;;;8.90;99.90;;;;;;5079571;28;20024;-78
2023/11/10 10:50:07;;;;;;;9.85;5.57;;;8.90;99.90;;;;;;5080340;28;20050;-81
2023/11/10 10:52:33;;;;;;;11.77;4.72;;;8.90;99.90;;;;;;5080827;28;20070;-74
2023/11/10 10:55:05;;;;;;;9.38;4.70;;;9.00;99.90;;;;;;5080512;28;20118;-74
2023/11/10 10:57:33;;;;;;;11.30;5.18;;;9.00;99.90;;;;;;5080475;28;20051;-74
2023/11/10 11:00:00;;;;;;;14.63;6.88;;;9.00;99.90;;;;;;5079539;28;20117;-73
2023/11/10 11:02:27;;;;;;;14.98;6.72;;;9.00;99.90;;;;;;5080312;28;20052;-75
2023/11/10 11:05:14;;;;;;;15.45;5.78;;;9.00;99.90;;;;;;5079365;28;20085;-75
2023/11/10 11:07:57;;;;;;;12.88;5.50;;;8.90;99.90;;;;;;5080364;28;20029;-75
2023/11/10 11:10:30;;;;;;;10.10;4.65;;;8.90;99.90;;;;;;5080645;28;20088;-74
2023/11/10 11:13:17;;;;;;;12.65;4.65;;;8.90;99.90;;;;;;5079568;28;20062;-72
2023/11/10 11:15:52;;;;;;;12.82;4.93;;;8.90;99.90;;;;;;5078544;28;20041;-74
2023/11/10 11:18:45;;;;;;;12.02;4.78;;;8.90;99.90;;;;;;5079462;28;20438;-76
2023/11/10 11:21:13;;;;;;;11.70;4.50;;;8.90;99.90;;;;;;5080603;28;20033;-78
2023/11/10 11:23:40;;;;;;;13.90;5.30;;;8.80;99.90;;;;;;5078733;28;20024;-75
2023/11/10 11:26:06;;;;;;;13.10;5.30;;;9.00;99.90;;;;;;5080708;28;20023;-79
2023/11/10 11:28:34;;;;;;;32.35;12.15;;;9.00;99.90;;;;;;5080670;28;20025;-77
2023/11/10 11:31:08;;;;;;;39.67;12.93;;;9.00;99.90;;;;;;5080490;28;20021;-78
2023/11/10 11:33:35;;;;;;;12.77;5.30;;;9.10;99.90;;;;;;5079077;28;20486;-76
2023/11/10 11:36:01;;;;;;;9.35;4.13;;;9.10;99.90;;;;;;5079041;28;20024;-74
2023/11/10 11:38:27;;;;;;;10.18;4.72;;;9.10;99.90;;;;;;5080412;28;20040;-74
2023/11/10 11:40:57;;;;;;;11.10;4.97;;;9.10;99.90;;;;;;5073220;28;20032;-75
2023/11/10 11:43:27;;;;;;;10.85;3.90;;;9.10;99.90;;;;;;5077686;28;20028;-75
2023/11/10 11:46:03;;;;;;;11.20;3.40;;;9.20;99.90;;;;;;5077334;28;20028;-76
2023/11/10 11:48:32;;;;;;;7.32;3.03;;;9.20;99.90;;;;;;5082190;28;20032;-72
2023/11/10 11:50:58;;;;;;;10.13;3.70;;;9.20;99.90;;;;;;5083640;28;20013;-73
2023/11/10 11:53:24;;;;;;;10.43;4.18;;;9.20;99.90;;;;;;5084351;28;20047;-73
2023/11/10 11:55:56;;;;;;;13.25;4.18;;;9.20;99.90;;;;;;5084414;28;20036;-74
2023/11/10 11:58:23;;;;;;;10.40;4.57;;;9.20;99.90;;;;;;5078768;28;20121;-73
2023/11/10 12:00:49;;;;;;;12.43;5.22;;;9.20;99.90;;;;;;5082575;28;20047;-74
2023/11/10 12:03:15;;;;;;;11.30;4.70;;;9.10;99.90;;;;;;5082614;28;20111;-76
2023/11/10 12:05:44;;;;;;;15.00;5.00;;;9.00;99.90;;;;;;5080519;28;20052;-74
2023/11/10 12:08:15;;;;;;;8.35;4.18;;;9.10;99.90;;;;;;5083289;28;20060;-72
2023/11/10 12:10:42;;;;;;;8.88;4.60;;;9.10;99.90;;;;;;5080756;28;20032;-76
2023/11/10 12:13:08;;;;;;;8.27;3.67;;;9.10;99.90;;;;;;5082453;28;20035;-75
2023/11/10 12:15:34;;;;;;;10.77;3.15;;;9.00;99.90;;;;;;5083242;28;20104;-74
2023/11/10 12:18:01;;;;;;;7.05;3.38;;;9.10;99.90;;;;;;5083364;28;20044;-75
2023/11/10 12:20:30;;;;;;;6.97;3.05;;;9.10;99.90;;;;;;5082971;28;20052;-73
2023/11/10 12:22:56;;;;;;;10.27;3.05;;;9.10;99.90;;;;;;5083495;28;20047;-73
2023/11/10 12:25:29;;;;;;;10.50;3.00;;;9.20;99.90;;;;;;5083413;28;20063;-74
2023/11/10 12:27:55;;;;;;;11.52;3.08;;;9.20;99.90;;;;;;5083865;28;20017;-75
2023/11/10 12:30:25;;;;;;;7.38;2.97;;;9.30;99.90;;;;;;5083003;28;20012;-73
2023/11/10 12:32:52;;;;;;;10.20;3.28;;;9.30;99.90;;;;;;5082956;28;20028;-70
2023/11/10 12:35:21;;;;;;;10.40;3.05;;;9.50;99.90;;;;;;5083723;28;20035;-73
2023/11/10 12:37:50;;;;;;;9.50;3.70;;;9.50;99.90;;;;;;5081535;28;20112;-72
2023/11/10 12:40:17;;;;;;;9.20;3.78;;;9.70;99.90;;;;;;5082574;28;20048;-72
2023/11/10 12:42:43;;;;;;;10.07;3.88;;;9.80;99.90;;;;;;5083259;28;21340;-75